HUX weather

Bahías de Huatulco International Airport
Huatulco, Oaxaca, Mexico

Public forecast

Using degrees Celsius for public forecast. Weather courtesy of forecast.io.

METAR (pilot weather report)

Retrieved 2019/03/26 17:40 UTC (48 minutes ago):

MMBT 261740Z 09015G30KT 7SM SKC 35/7 A2992 RMK HZY

TAF (pilot weather forecast)

Retrieved 2019/03/26 18:22 UTC (6 minutes ago):

TAF COR MMBT 261815Z 2618/2718 10015G25KT P6SM SKC FM270100 01005KT P6SM SKC FM271500 10006KT P6SM SKC